sensor_id;sensor_type;location;lat;lon;timestamp;P1;durP1;ratioP1;P2;durP2;ratioP2
16954;SDS011;8594;52.052;8.354;2022-11-20T00:00:49;18.80;;;9.40;;
16954;SDS011;8594;52.052;8.354;2022-11-20T00:03:16;19.23;;;9.67;;
16954;SDS011;8594;52.052;8.354;2022-11-20T00:05:43;20.37;;;9.63;;
16954;SDS011;8594;52.052;8.354;2022-11-20T00:08:11;18.10;;;9.40;;
16954;SDS011;8594;52.052;8.354;2022-11-20T00:10:38;16.70;;;8.90;;
16954;SDS011;8594;52.052;8.354;2022-11-20T00:13:06;17.63;;;9.53;;
16954;SDS011;8594;52.052;8.354;2022-11-20T00:15:35;14.97;;;8.70;;
16954;SDS011;8594;52.052;8.354;2022-11-20T00:18:02;14.40;;;8.33;;
16954;SDS011;8594;52.052;8.354;2022-11-20T00:20:29;15.83;;;8.07;;
16954;SDS011;8594;52.052;8.354;2022-11-20T00:22:56;15.50;;;8.40;;
16954;SDS011;8594;52.052;8.354;2022-11-20T00:25:23;14.23;;;7.70;;
16954;SDS011;8594;52.052;8.354;2022-11-20T00:27:50;16.60;;;8.53;;
16954;SDS011;8594;52.052;8.354;2022-11-20T00:30:17;12.97;;;7.20;;
16954;SDS011;8594;52.052;8.354;2022-11-20T00:32:46;13.67;;;7.13;;
16954;SDS011;8594;52.052;8.354;2022-11-20T00:35:12;15.00;;;7.80;;
16954;SDS011;8594;52.052;8.354;2022-11-20T00:37:39;14.87;;;7.73;;
16954;SDS011;8594;52.052;8.354;2022-11-20T00:40:07;15.80;;;8.03;;
16954;SDS011;8594;52.052;8.354;2022-11-20T00:42:35;14.77;;;7.67;;
16954;SDS011;8594;52.052;8.354;2022-11-20T00:45:02;15.20;;;7.47;;
16954;SDS011;8594;52.052;8.354;2022-11-20T00:47:30;12.27;;;6.93;;
16954;SDS011;8594;52.052;8.354;2022-11-20T00:49:58;11.63;;;6.70;;
16954;SDS011;8594;52.052;8.354;2022-11-20T00:52:25;11.43;;;6.40;;
16954;SDS011;8594;52.052;8.354;2022-11-20T00:54:52;14.53;;;6.73;;
16954;SDS011;8594;52.052;8.354;2022-11-20T00:57:18;14.43;;;6.93;;
16954;SDS011;8594;52.052;8.354;2022-11-20T00:59:45;13.17;;;6.90;;
16954;SDS011;8594;52.052;8.354;2022-11-20T01:02:12;11.87;;;7.20;;
16954;SDS011;8594;52.052;8.354;2022-11-20T01:04:41;12.37;;;6.67;;
16954;SDS011;8594;52.052;8.354;2022-11-20T01:07:09;13.50;;;7.13;;
16954;SDS011;8594;52.052;8.354;2022-11-20T01:09:36;13.37;;;6.93;;
16954;SDS011;8594;52.052;8.354;2022-11-20T01:12:03;12.17;;;7.30;;
16954;SDS011;8594;52.052;8.354;2022-11-20T01:14:31;14.13;;;7.97;;
16954;SDS011;8594;52.052;8.354;2022-11-20T01:16:58;14.20;;;7.10;;
16954;SDS011;8594;52.052;8.354;2022-11-20T01:19:24;12.33;;;7.00;;
16954;SDS011;8594;52.052;8.354;2022-11-20T01:21:52;14.83;;;7.87;;
16954;SDS011;8594;52.052;8.354;2022-11-20T01:24:22;11.63;;;6.57;;
16954;SDS011;8594;52.052;8.354;2022-11-20T01:26:49;14.20;;;7.67;;
16954;SDS011;8594;52.052;8.354;2022-11-20T01:29:18;14.27;;;7.33;;
16954;SDS011;8594;52.052;8.354;2022-11-20T01:31:48;13.73;;;7.47;;
16954;SDS011;8594;52.052;8.354;2022-11-20T01:34:17;14.03;;;7.17;;
16954;SDS011;8594;52.052;8.354;2022-11-20T01:36:46;14.00;;;7.23;;
16954;SDS011;8594;52.052;8.354;2022-11-20T01:39:15;14.23;;;7.93;;
16954;SDS011;8594;52.052;8.354;2022-11-20T01:41:45;21.23;;;8.93;;
16954;SDS011;8594;52.052;8.354;2022-11-20T01:44:47;15.07;;;7.30;;
16954;SDS011;8594;52.052;8.354;2022-11-20T01:47:21;18.00;;;7.57;;
16954;SDS011;8594;52.052;8.354;2022-11-20T01:50:04;11.50;;;7.10;;
16954;SDS011;8594;52.052;8.354;2022-11-20T01:52:40;14.07;;;7.73;;
16954;SDS011;8594;52.052;8.354;2022-11-20T01:55:13;12.83;;;7.53;;
16954;SDS011;8594;52.052;8.354;2022-11-20T01:57:47;12.60;;;7.37;;
16954;SDS011;8594;52.052;8.354;2022-11-20T02:00:16;14.30;;;8.47;;
16954;SDS011;8594;52.052;8.354;2022-11-20T02:02:47;14.83;;;8.00;;
16954;SDS011;8594;52.052;8.354;2022-11-20T02:05:22;14.20;;;8.17;;
16954;SDS011;8594;52.052;8.354;2022-11-20T02:07:59;15.10;;;8.27;;
16954;SDS011;8594;52.052;8.354;2022-11-20T02:10:28;16.23;;;7.87;;
16954;SDS011;8594;52.052;8.354;2022-11-20T02:12:58;19.53;;;8.77;;
16954;SDS011;8594;52.052;8.354;2022-11-20T02:15:42;16.57;;;8.00;;
16954;SDS011;8594;52.052;8.354;2022-11-20T02:18:10;14.50;;;7.87;;
16954;SDS011;8594;52.052;8.354;2022-11-20T02:20:42;18.63;;;8.80;;
16954;SDS011;8594;52.052;8.354;2022-11-20T02:23:13;18.70;;;8.53;;
16954;SDS011;8594;52.052;8.354;2022-11-20T02:25:49;16.27;;;9.07;;
16954;SDS011;8594;52.052;8.354;2022-11-20T02:28:18;18.80;;;9.40;;
16954;SDS011;8594;52.052;8.354;2022-11-20T02:30:46;16.53;;;9.20;;
16954;SDS011;8594;52.052;8.354;2022-11-20T02:33:13;18.33;;;9.13;;
16954;SDS011;8594;52.052;8.354;2022-11-20T02:35:41;16.23;;;9.27;;
16954;SDS011;8594;52.052;8.354;2022-11-20T02:38:11;16.57;;;8.70;;
16954;SDS011;8594;52.052;8.354;2022-11-20T02:40:39;18.67;;;9.23;;
16954;SDS011;8594;52.052;8.354;2022-11-20T02:43:10;19.83;;;9.47;;
16954;SDS011;8594;52.052;8.354;2022-11-20T02:45:37;19.60;;;8.40;;
16954;SDS011;8594;52.052;8.354;2022-11-20T02:48:05;23.33;;;9.73;;
16954;SDS011;8594;52.052;8.354;2022-11-20T02:50:35;16.63;;;8.63;;
16954;SDS011;8594;52.052;8.354;2022-11-20T02:53:05;14.47;;;8.37;;
16954;SDS011;8594;52.052;8.354;2022-11-20T02:55:32;16.73;;;8.93;;
16954;SDS011;8594;52.052;8.354;2022-11-20T02:57:59;16.57;;;8.37;;
16954;SDS011;8594;52.052;8.354;2022-11-20T03:00:27;15.47;;;8.70;;
16954;SDS011;8594;52.052;8.354;2022-11-20T03:02:54;17.50;;;8.60;;
16954;SDS011;8594;52.052;8.354;2022-11-20T03:05:21;15.63;;;8.13;;
16954;SDS011;8594;52.052;8.354;2022-11-20T03:07:48;17.77;;;8.97;;
16954;SDS011;8594;52.052;8.354;2022-11-20T03:10:15;17.40;;;8.57;;
16954;SDS011;8594;52.052;8.354;2022-11-20T03:12:42;16.53;;;9.00;;
16954;SDS011;8594;52.052;8.354;2022-11-20T03:15:10;17.73;;;8.93;;
16954;SDS011;8594;52.052;8.354;2022-11-20T03:17:38;18.17;;;9.50;;
16954;SDS011;8594;52.052;8.354;2022-11-20T03:20:06;16.90;;;9.17;;
16954;SDS011;8594;52.052;8.354;2022-11-20T03:22:34;15.90;;;8.43;;
16954;SDS011;8594;52.052;8.354;2022-11-20T03:25:01;17.63;;;8.20;;
16954;SDS011;8594;52.052;8.354;2022-11-20T03:27:31;17.70;;;8.63;;
16954;SDS011;8594;52.052;8.354;2022-11-20T03:30:00;16.43;;;8.63;;
16954;SDS011;8594;52.052;8.354;2022-11-20T03:32:27;19.10;;;8.70;;
16954;SDS011;8594;52.052;8.354;2022-11-20T03:34:55;17.13;;;8.47;;
16954;SDS011;8594;52.052;8.354;2022-11-20T03:37:22;16.57;;;8.60;;
16954;SDS011;8594;52.052;8.354;2022-11-20T03:39:49;17.17;;;9.00;;
16954;SDS011;8594;52.052;8.354;2022-11-20T03:42:15;15.10;;;8.67;;
16954;SDS011;8594;52.052;8.354;2022-11-20T03:45:00;14.20;;;8.10;;
16954;SDS011;8594;52.052;8.354;2022-11-20T03:47:27;21.40;;;8.73;;
16954;SDS011;8594;52.052;8.354;2022-11-20T03:49:55;17.30;;;8.30;;
16954;SDS011;8594;52.052;8.354;2022-11-20T03:52:22;18.30;;;8.97;;
16954;SDS011;8594;52.052;8.354;2022-11-20T03:54:49;17.27;;;8.43;;
16954;SDS011;8594;52.052;8.354;2022-11-20T03:57:16;12.37;;;7.63;;
16954;SDS011;8594;52.052;8.354;2022-11-20T03:59:43;14.30;;;8.30;;
16954;SDS011;8594;52.052;8.354;2022-11-20T04:02:10;18.60;;;9.03;;
16954;SDS011;8594;52.052;8.354;2022-11-20T04:04:36;15.60;;;8.37;;
16954;SDS011;8594;52.052;8.354;2022-11-20T04:07:05;15.70;;;7.97;;
16954;SDS011;8594;52.052;8.354;2022-11-20T04:09:32;16.43;;;9.00;;
16954;SDS011;8594;52.052;8.354;2022-11-20T04:11:58;18.20;;;8.97;;
16954;SDS011;8594;52.052;8.354;2022-11-20T04:14:25;15.67;;;8.30;;
16954;SDS011;8594;52.052;8.354;2022-11-20T04:16:52;16.27;;;8.63;;
16954;SDS011;8594;52.052;8.354;2022-11-20T04:19:19;16.27;;;8.27;;
16954;SDS011;8594;52.052;8.354;2022-11-20T04:21:46;13.60;;;7.70;;
16954;SDS011;8594;52.052;8.354;2022-11-20T04:24:15;14.10;;;7.83;;
16954;SDS011;8594;52.052;8.354;2022-11-20T04:26:42;14.47;;;7.90;;
16954;SDS011;8594;52.052;8.354;2022-11-20T04:29:09;15.13;;;8.30;;
16954;SDS011;8594;52.052;8.354;2022-11-20T04:31:37;16.93;;;8.13;;
16954;SDS011;8594;52.052;8.354;2022-11-20T04:34:05;15.00;;;7.97;;
16954;SDS011;8594;52.052;8.354;2022-11-20T04:36:33;14.60;;;8.00;;
16954;SDS011;8594;52.052;8.354;2022-11-20T04:39:01;15.23;;;7.70;;
16954;SDS011;8594;52.052;8.354;2022-11-20T04:41:33;16.03;;;7.97;;
16954;SDS011;8594;52.052;8.354;2022-11-20T04:44:04;15.77;;;8.07;;
16954;SDS011;8594;52.052;8.354;2022-11-20T04:46:32;15.57;;;8.13;;
16954;SDS011;8594;52.052;8.354;2022-11-20T04:49:02;12.30;;;6.87;;
16954;SDS011;8594;52.052;8.354;2022-11-20T04:51:30;14.47;;;7.43;;
16954;SDS011;8594;52.052;8.354;2022-11-20T04:53:57;13.87;;;7.53;;
16954;SDS011;8594;52.052;8.354;2022-11-20T04:56:24;11.27;;;6.67;;
16954;SDS011;8594;52.052;8.354;2022-11-20T04:58:52;13.17;;;7.17;;
16954;SDS011;8594;52.052;8.354;2022-11-20T05:01:20;15.50;;;7.67;;
16954;SDS011;8594;52.052;8.354;2022-11-20T05:03:50;12.27;;;7.33;;
16954;SDS011;8594;52.052;8.354;2022-11-20T05:06:18;14.20;;;7.70;;
16954;SDS011;8594;52.052;8.354;2022-11-20T05:08:46;14.20;;;7.33;;
16954;SDS011;8594;52.052;8.354;2022-11-20T05:11:15;11.73;;;7.37;;
16954;SDS011;8594;52.052;8.354;2022-11-20T05:14:40;13.40;;;7.33;;
16954;SDS011;8594;52.052;8.354;2022-11-20T05:18:02;15.97;;;7.30;;
16954;SDS011;8594;52.052;8.354;2022-11-20T05:20:42;15.20;;;7.37;;
16954;SDS011;8594;52.052;8.354;2022-11-20T05:23:09;13.00;;;6.97;;
16954;SDS011;8594;52.052;8.354;2022-11-20T05:25:36;15.43;;;7.43;;
16954;SDS011;8594;52.052;8.354;2022-11-20T05:28:03;14.43;;;7.73;;
16954;SDS011;8594;52.052;8.354;2022-11-20T05:30:31;13.03;;;7.37;;
16954;SDS011;8594;52.052;8.354;2022-11-20T05:32:58;17.23;;;8.43;;
16954;SDS011;8594;52.052;8.354;2022-11-20T05:35:25;12.07;;;7.47;;
16954;SDS011;8594;52.052;8.354;2022-11-20T05:37:52;16.20;;;8.37;;
16954;SDS011;8594;52.052;8.354;2022-11-20T05:40:19;16.07;;;8.80;;
16954;SDS011;8594;52.052;8.354;2022-11-20T05:42:46;15.23;;;7.47;;
16954;SDS011;8594;52.052;8.354;2022-11-20T05:45:12;15.53;;;8.17;;
16954;SDS011;8594;52.052;8.354;2022-11-20T05:47:41;14.93;;;8.60;;
16954;SDS011;8594;52.052;8.354;2022-11-20T05:50:08;13.57;;;7.70;;
16954;SDS011;8594;52.052;8.354;2022-11-20T05:52:35;14.97;;;8.33;;
16954;SDS011;8594;52.052;8.354;2022-11-20T05:55:02;20.43;;;8.67;;
16954;SDS011;8594;52.052;8.354;2022-11-20T05:57:30;16.57;;;8.90;;
16954;SDS011;8594;52.052;8.354;2022-11-20T05:59:57;14.20;;;7.83;;
16954;SDS011;8594;52.052;8.354;2022-11-20T06:02:24;17.63;;;8.43;;
16954;SDS011;8594;52.052;8.354;2022-11-20T06:04:52;15.97;;;8.03;;
16954;SDS011;8594;52.052;8.354;2022-11-20T06:07:19;14.03;;;7.80;;
16954;SDS011;8594;52.052;8.354;2022-11-20T06:09:46;14.93;;;8.40;;
16954;SDS011;8594;52.052;8.354;2022-11-20T06:12:13;16.70;;;8.67;;
16954;SDS011;8594;52.052;8.354;2022-11-20T06:14:40;15.93;;;8.77;;
16954;SDS011;8594;52.052;8.354;2022-11-20T06:17:07;15.43;;;8.43;;
16954;SDS011;8594;52.052;8.354;2022-11-20T06:19:33;15.40;;;8.00;;
16954;SDS011;8594;52.052;8.354;2022-11-20T06:22:02;15.00;;;8.40;;
16954;SDS011;8594;52.052;8.354;2022-11-20T06:24:29;20.83;;;9.07;;
16954;SDS011;8594;52.052;8.354;2022-11-20T06:26:56;15.27;;;8.10;;
16954;SDS011;8594;52.052;8.354;2022-11-20T06:29:23;15.27;;;8.60;;
16954;SDS011;8594;52.052;8.354;2022-11-20T06:31:49;17.50;;;8.90;;
16954;SDS011;8594;52.052;8.354;2022-11-20T06:34:16;15.60;;;8.43;;
16954;SDS011;8594;52.052;8.354;2022-11-20T06:36:43;14.43;;;8.00;;
16954;SDS011;8594;52.052;8.354;2022-11-20T06:39:12;15.30;;;8.30;;
16954;SDS011;8594;52.052;8.354;2022-11-20T06:41:39;15.07;;;8.30;;
16954;SDS011;8594;52.052;8.354;2022-11-20T06:44:05;16.73;;;8.17;;
16954;SDS011;8594;52.052;8.354;2022-11-20T06:46:32;14.30;;;8.23;;
16954;SDS011;8594;52.052;8.354;2022-11-20T06:48:59;14.00;;;8.33;;
16954;SDS011;8594;52.052;8.354;2022-11-20T06:51:26;15.37;;;8.13;;
16954;SDS011;8594;52.052;8.354;2022-11-20T06:53:53;15.83;;;8.53;;
16954;SDS011;8594;52.052;8.354;2022-11-20T06:56:21;15.07;;;8.10;;
16954;SDS011;8594;52.052;8.354;2022-11-20T06:58:48;18.87;;;8.53;;
16954;SDS011;8594;52.052;8.354;2022-11-20T07:01:15;19.90;;;9.97;;
16954;SDS011;8594;52.052;8.354;2022-11-20T07:03:42;18.70;;;8.90;;
16954;SDS011;8594;52.052;8.354;2022-11-20T07:06:09;14.47;;;8.40;;
16954;SDS011;8594;52.052;8.354;2022-11-20T07:08:37;15.90;;;9.13;;
16954;SDS011;8594;52.052;8.354;2022-11-20T07:11:05;18.27;;;9.03;;
16954;SDS011;8594;52.052;8.354;2022-11-20T07:13:35;31.07;;;16.70;;
16954;SDS011;8594;52.052;8.354;2022-11-20T07:16:02;26.37;;;14.83;;
16954;SDS011;8594;52.052;8.354;2022-11-20T07:18:32;20.93;;;9.60;;
16954;SDS011;8594;52.052;8.354;2022-11-20T07:21:00;14.27;;;8.67;;
16954;SDS011;8594;52.052;8.354;2022-11-20T07:23:27;17.57;;;9.40;;
16954;SDS011;8594;52.052;8.354;2022-11-20T07:25:54;16.73;;;8.73;;
16954;SDS011;8594;52.052;8.354;2022-11-20T07:28:21;15.00;;;8.13;;
16954;SDS011;8594;52.052;8.354;2022-11-20T07:30:50;17.90;;;8.97;;
16954;SDS011;8594;52.052;8.354;2022-11-20T07:33:19;19.63;;;8.30;;
16954;SDS011;8594;52.052;8.354;2022-11-20T07:35:46;17.57;;;9.43;;
16954;SDS011;8594;52.052;8.354;2022-11-20T07:38:13;18.37;;;9.43;;
16954;SDS011;8594;52.052;8.354;2022-11-20T07:40:40;20.20;;;10.27;;
16954;SDS011;8594;52.052;8.354;2022-11-20T07:43:07;22.30;;;10.10;;
16954;SDS011;8594;52.052;8.354;2022-11-20T07:45:34;28.40;;;10.97;;
16954;SDS011;8594;52.052;8.354;2022-11-20T07:48:02;31.00;;;12.17;;
16954;SDS011;8594;52.052;8.354;2022-11-20T07:50:30;32.70;;;13.00;;
16954;SDS011;8594;52.052;8.354;2022-11-20T07:53:00;41.70;;;18.13;;
16954;SDS011;8594;52.052;8.354;2022-11-20T07:55:30;40.77;;;16.73;;
16954;SDS011;8594;52.052;8.354;2022-11-20T07:57:58;46.03;;;15.97;;
16954;SDS011;8594;52.052;8.354;2022-11-20T08:00:25;46.57;;;17.70;;
16954;SDS011;8594;52.052;8.354;2022-11-20T08:02:53;45.73;;;16.60;;
16954;SDS011;8594;52.052;8.354;2022-11-20T08:05:21;46.00;;;17.47;;
16954;SDS011;8594;52.052;8.354;2022-11-20T08:07:48;45.67;;;15.77;;
16954;SDS011;8594;52.052;8.354;2022-11-20T08:10:15;46.73;;;17.57;;
16954;SDS011;8594;52.052;8.354;2022-11-20T08:12:43;50.77;;;18.23;;
16954;SDS011;8594;52.052;8.354;2022-11-20T08:15:29;48.47;;;16.93;;
16954;SDS011;8594;52.052;8.354;2022-11-20T08:18:00;48.47;;;18.33;;
16954;SDS011;8594;52.052;8.354;2022-11-20T08:20:30;49.53;;;17.87;;
16954;SDS011;8594;52.052;8.354;2022-11-20T08:22:58;50.33;;;19.77;;
16954;SDS011;8594;52.052;8.354;2022-11-20T08:25:26;56.20;;;19.00;;
16954;SDS011;8594;52.052;8.354;2022-11-20T08:27:54;59.07;;;20.13;;
16954;SDS011;8594;52.052;8.354;2022-11-20T08:30:23;60.90;;;21.70;;
16954;SDS011;8594;52.052;8.354;2022-11-20T08:32:50;58.37;;;20.50;;
16954;SDS011;8594;52.052;8.354;2022-11-20T08:35:18;54.87;;;20.67;;
16954;SDS011;8594;52.052;8.354;2022-11-20T08:37:47;56.83;;;20.53;;
16954;SDS011;8594;52.052;8.354;2022-11-20T08:40:15;59.23;;;20.93;;
16954;SDS011;8594;52.052;8.354;2022-11-20T08:42:45;55.80;;;19.33;;
16954;SDS011;8594;52.052;8.354;2022-11-20T08:45:13;44.67;;;18.73;;
16954;SDS011;8594;52.052;8.354;2022-11-20T08:47:41;47.10;;;17.93;;
16954;SDS011;8594;52.052;8.354;2022-11-20T08:50:08;56.60;;;18.67;;
16954;SDS011;8594;52.052;8.354;2022-11-20T08:52:36;52.67;;;18.07;;
16954;SDS011;8594;52.052;8.354;2022-11-20T08:55:05;46.87;;;19.53;;
16954;SDS011;8594;52.052;8.354;2022-11-20T08:57:33;46.27;;;18.03;;
16954;SDS011;8594;52.052;8.354;2022-11-20T09:00:03;41.37;;;16.73;;
16954;SDS011;8594;52.052;8.354;2022-11-20T09:02:32;41.30;;;17.10;;
16954;SDS011;8594;52.052;8.354;2022-11-20T09:04:59;46.77;;;16.80;;
16954;SDS011;8594;52.052;8.354;2022-11-20T09:07:27;37.87;;;15.53;;
16954;SDS011;8594;52.052;8.354;2022-11-20T09:09:55;40.73;;;17.13;;
16954;SDS011;8594;52.052;8.354;2022-11-20T09:12:23;39.50;;;14.93;;
16954;SDS011;8594;52.052;8.354;2022-11-20T09:14:50;36.20;;;14.53;;
16954;SDS011;8594;52.052;8.354;2022-11-20T09:17:17;34.87;;;14.67;;
16954;SDS011;8594;52.052;8.354;2022-11-20T09:19:45;34.67;;;15.43;;
16954;SDS011;8594;52.052;8.354;2022-11-20T09:22:13;34.63;;;15.53;;
16954;SDS011;8594;52.052;8.354;2022-11-20T09:24:40;40.30;;;15.70;;
16954;SDS011;8594;52.052;8.354;2022-11-20T09:27:07;35.37;;;15.60;;
16954;SDS011;8594;52.052;8.354;2022-11-20T09:29:36;29.20;;;15.17;;
16954;SDS011;8594;52.052;8.354;2022-11-20T09:32:03;30.83;;;15.30;;
16954;SDS011;8594;52.052;8.354;2022-11-20T09:34:31;28.27;;;14.37;;
16954;SDS011;8594;52.052;8.354;2022-11-20T09:36:58;26.03;;;13.90;;
16954;SDS011;8594;52.052;8.354;2022-11-20T09:39:25;29.33;;;14.77;;
16954;SDS011;8594;52.052;8.354;2022-11-20T09:45:06;29.47;;;13.87;;
16954;SDS011;8594;52.052;8.354;2022-11-20T09:47:53;26.03;;;12.87;;
16954;SDS011;8594;52.052;8.354;2022-11-20T09:50:40;27.33;;;13.60;;
16954;SDS011;8594;52.052;8.354;2022-11-20T09:53:16;27.73;;;13.37;;
16954;SDS011;8594;52.052;8.354;2022-11-20T09:55:54;25.90;;;12.53;;
16954;SDS011;8594;52.052;8.354;2022-11-20T09:58:24;25.13;;;12.60;;
16954;SDS011;8594;52.052;8.354;2022-11-20T10:01:00;22.70;;;12.10;;
16954;SDS011;8594;52.052;8.354;2022-11-20T10:03:38;25.33;;;12.00;;
16954;SDS011;8594;52.052;8.354;2022-11-20T10:06:17;24.57;;;12.27;;
16954;SDS011;8594;52.052;8.354;2022-11-20T10:08:51;25.07;;;12.00;;
16954;SDS011;8594;52.052;8.354;2022-11-20T10:11:29;20.00;;;11.13;;
16954;SDS011;8594;52.052;8.354;2022-11-20T10:14:12;22.50;;;13.13;;
16954;SDS011;8594;52.052;8.354;2022-11-20T10:16:56;20.47;;;11.33;;
16954;SDS011;8594;52.052;8.354;2022-11-20T10:19:40;20.97;;;11.53;;
16954;SDS011;8594;52.052;8.354;2022-11-20T10:22:30;20.07;;;11.03;;
16954;SDS011;8594;52.052;8.354;2022-11-20T10:25:13;23.77;;;11.70;;
16954;SDS011;8594;52.052;8.354;2022-11-20T10:27:47;21.13;;;11.53;;
16954;SDS011;8594;52.052;8.354;2022-11-20T10:30:46;25.43;;;11.63;;
16954;SDS011;8594;52.052;8.354;2022-11-20T10:33:23;24.47;;;11.40;;
16954;SDS011;8594;52.052;8.354;2022-11-20T10:35:57;22.53;;;11.83;;
16954;SDS011;8594;52.052;8.354;2022-11-20T10:38:34;28.53;;;14.20;;
16954;SDS011;8594;52.052;8.354;2022-11-20T10:41:07;28.07;;;14.03;;
16954;SDS011;8594;52.052;8.354;2022-11-20T10:43:52;78.77;;;25.10;;
16954;SDS011;8594;52.052;8.354;2022-11-20T10:46:30;18.10;;;10.23;;
16954;SDS011;8594;52.052;8.354;2022-11-20T10:49:12;17.40;;;10.60;;
16954;SDS011;8594;52.052;8.354;2022-11-20T10:51:44;19.90;;;11.50;;
16954;SDS011;8594;52.052;8.354;2022-11-20T10:54:27;21.27;;;10.57;;
16954;SDS011;8594;52.052;8.354;2022-11-20T10:57:07;21.57;;;12.63;;
16954;SDS011;8594;52.052;8.354;2022-11-20T11:02:39;20.57;;;10.87;;
16954;SDS011;8594;52.052;8.354;2022-11-20T11:05:14;15.53;;;9.93;;
16954;SDS011;8594;52.052;8.354;2022-11-20T11:08:00;18.00;;;10.33;;
16954;SDS011;8594;52.052;8.354;2022-11-20T11:10:32;17.23;;;10.30;;
16954;SDS011;8594;52.052;8.354;2022-11-20T11:13:06;21.27;;;10.53;;
16954;SDS011;8594;52.052;8.354;2022-11-20T11:15:48;20.50;;;10.00;;
16954;SDS011;8594;52.052;8.354;2022-11-20T11:18:22;22.97;;;10.60;;
16954;SDS011;8594;52.052;8.354;2022-11-20T11:20:52;16.90;;;9.97;;
16954;SDS011;8594;52.052;8.354;2022-11-20T11:23:29;18.93;;;10.13;;
16954;SDS011;8594;52.052;8.354;2022-11-20T11:26:00;20.30;;;10.90;;
16954;SDS011;8594;52.052;8.354;2022-11-20T11:28:30;17.10;;;9.77;;
16954;SDS011;8594;52.052;8.354;2022-11-20T11:30:58;17.63;;;10.27;;
16954;SDS011;8594;52.052;8.354;2022-11-20T11:33:25;21.43;;;10.87;;
16954;SDS011;8594;52.052;8.354;2022-11-20T11:35:56;18.60;;;10.57;;
16954;SDS011;8594;52.052;8.354;2022-11-20T11:38:28;17.87;;;10.17;;
16954;SDS011;8594;52.052;8.354;2022-11-20T11:41:00;17.83;;;10.40;;
16954;SDS011;8594;52.052;8.354;2022-11-20T11:43:28;23.53;;;12.07;;
16954;SDS011;8594;52.052;8.354;2022-11-20T11:46:23;19.90;;;11.13;;
16954;SDS011;8594;52.052;8.354;2022-11-20T11:48:56;17.47;;;10.03;;
16954;SDS011;8594;52.052;8.354;2022-11-20T11:51:28;16.83;;;10.37;;
16954;SDS011;8594;52.052;8.354;2022-11-20T11:54:05;18.57;;;9.97;;
16954;SDS011;8594;52.052;8.354;2022-11-20T11:56:50;18.27;;;10.77;;
16954;SDS011;8594;52.052;8.354;2022-11-20T11:59:22;18.30;;;9.73;;
16954;SDS011;8594;52.052;8.354;2022-11-20T12:01:55;21.47;;;10.93;;
16954;SDS011;8594;52.052;8.354;2022-11-20T12:04:33;17.00;;;9.80;;
16954;SDS011;8594;52.052;8.354;2022-11-20T12:07:12;17.30;;;9.40;;
16954;SDS011;8594;52.052;8.354;2022-11-20T12:09:48;18.27;;;10.30;;
16954;SDS011;8594;52.052;8.354;2022-11-20T12:12:21;16.97;;;10.30;;
16954;SDS011;8594;52.052;8.354;2022-11-20T12:14:56;21.53;;;11.03;;
16954;SDS011;8594;52.052;8.354;2022-11-20T12:17:24;17.87;;;10.10;;
16954;SDS011;8594;52.052;8.354;2022-11-20T12:19:51;17.07;;;9.90;;
16954;SDS011;8594;52.052;8.354;2022-11-20T12:22:21;23.10;;;11.90;;
16954;SDS011;8594;52.052;8.354;2022-11-20T12:25:03;16.83;;;10.33;;
16954;SDS011;8594;52.052;8.354;2022-11-20T12:27:42;19.87;;;10.60;;
16954;SDS011;8594;52.052;8.354;2022-11-20T12:30:36;15.17;;;9.77;;
16954;SDS011;8594;52.052;8.354;2022-11-20T12:33:31;20.87;;;10.77;;
16954;SDS011;8594;52.052;8.354;2022-11-20T12:36:18;18.83;;;9.80;;
16954;SDS011;8594;52.052;8.354;2022-11-20T12:38:59;15.77;;;9.70;;
16954;SDS011;8594;52.052;8.354;2022-11-20T12:41:51;18.57;;;9.50;;
16954;SDS011;8594;52.052;8.354;2022-11-20T12:45:14;14.20;;;8.87;;
16954;SDS011;8594;52.052;8.354;2022-11-20T12:48:36;15.40;;;8.83;;
16954;SDS011;8594;52.052;8.354;2022-11-20T12:51:43;18.27;;;9.10;;
16954;SDS011;8594;52.052;8.354;2022-11-20T12:54:39;14.13;;;8.47;;
16954;SDS011;8594;52.052;8.354;2022-11-20T12:57:29;17.90;;;9.93;;
16954;SDS011;8594;52.052;8.354;2022-11-20T13:00:14;20.63;;;10.60;;
16954;SDS011;8594;52.052;8.354;2022-11-20T13:02:53;18.00;;;10.30;;
16954;SDS011;8594;52.052;8.354;2022-11-20T13:05:51;20.20;;;11.20;;
16954;SDS011;8594;52.052;8.354;2022-11-20T13:08:29;17.23;;;10.00;;
16954;SDS011;8594;52.052;8.354;2022-11-20T13:11:03;20.60;;;10.33;;
16954;SDS011;8594;52.052;8.354;2022-11-20T13:13:43;15.20;;;9.50;;
16954;SDS011;8594;52.052;8.354;2022-11-20T13:16:36;21.53;;;11.13;;
16954;SDS011;8594;52.052;8.354;2022-11-20T13:19:13;21.40;;;11.33;;
16954;SDS011;8594;52.052;8.354;2022-11-20T13:21:43;21.90;;;10.90;;
16954;SDS011;8594;52.052;8.354;2022-11-20T13:24:21;19.20;;;11.03;;
16954;SDS011;8594;52.052;8.354;2022-11-20T13:29:59;21.53;;;10.67;;
16954;SDS011;8594;52.052;8.354;2022-11-20T13:32:47;21.47;;;10.93;;
16954;SDS011;8594;52.052;8.354;2022-11-20T13:35:23;17.07;;;10.27;;
16954;SDS011;8594;52.052;8.354;2022-11-20T13:38:02;22.07;;;11.63;;
16954;SDS011;8594;52.052;8.354;2022-11-20T13:40:33;21.50;;;10.57;;
16954;SDS011;8594;52.052;8.354;2022-11-20T13:43:07;20.00;;;11.47;;
16954;SDS011;8594;52.052;8.354;2022-11-20T13:45:53;20.67;;;10.90;;
16954;SDS011;8594;52.052;8.354;2022-11-20T13:48:26;21.00;;;10.87;;
16954;SDS011;8594;52.052;8.354;2022-11-20T13:51:05;22.20;;;11.83;;
16954;SDS011;8594;52.052;8.354;2022-11-20T13:54:03;22.57;;;11.43;;
16954;SDS011;8594;52.052;8.354;2022-11-20T13:56:51;21.47;;;11.77;;
16954;SDS011;8594;52.052;8.354;2022-11-20T13:59:42;25.20;;;12.30;;
16954;SDS011;8594;52.052;8.354;2022-11-20T14:02:25;24.10;;;12.33;;
16954;SDS011;8594;52.052;8.354;2022-11-20T14:04:56;22.50;;;12.23;;
16954;SDS011;8594;52.052;8.354;2022-11-20T14:07:26;30.37;;;13.40;;
16954;SDS011;8594;52.052;8.354;2022-11-20T14:10:03;29.27;;;14.07;;
16954;SDS011;8594;52.052;8.354;2022-11-20T14:12:32;26.33;;;15.40;;
16954;SDS011;8594;52.052;8.354;2022-11-20T14:15:03;24.10;;;13.13;;
16954;SDS011;8594;52.052;8.354;2022-11-20T14:17:31;25.87;;;13.40;;
16954;SDS011;8594;52.052;8.354;2022-11-20T14:20:01;27.73;;;13.70;;
16954;SDS011;8594;52.052;8.354;2022-11-20T14:22:32;24.97;;;13.97;;
16954;SDS011;8594;52.052;8.354;2022-11-20T14:25:04;29.37;;;14.73;;
16954;SDS011;8594;52.052;8.354;2022-11-20T14:27:47;27.77;;;14.90;;
16954;SDS011;8594;52.052;8.354;2022-11-20T14:30:21;31.97;;;14.37;;
16954;SDS011;8594;52.052;8.354;2022-11-20T14:32:51;27.80;;;14.23;;
16954;SDS011;8594;52.052;8.354;2022-11-20T14:35:24;30.33;;;14.77;;
16954;SDS011;8594;52.052;8.354;2022-11-20T14:37:53;30.67;;;14.87;;
16954;SDS011;8594;52.052;8.354;2022-11-20T14:40:22;31.10;;;15.87;;
16954;SDS011;8594;52.052;8.354;2022-11-20T14:42:53;32.30;;;14.97;;
16954;SDS011;8594;52.052;8.354;2022-11-20T14:45:21;34.00;;;15.87;;
16954;SDS011;8594;52.052;8.354;2022-11-20T14:47:50;31.40;;;14.93;;
16954;SDS011;8594;52.052;8.354;2022-11-20T14:50:22;26.83;;;14.20;;
16954;SDS011;8594;52.052;8.354;2022-11-20T14:52:55;32.27;;;16.37;;
16954;SDS011;8594;52.052;8.354;2022-11-20T14:55:25;34.80;;;16.43;;
16954;SDS011;8594;52.052;8.354;2022-11-20T14:57:54;34.37;;;16.37;;
16954;SDS011;8594;52.052;8.354;2022-11-20T15:00:25;35.23;;;16.30;;
16954;SDS011;8594;52.052;8.354;2022-11-20T15:02:52;29.27;;;15.37;;
16954;SDS011;8594;52.052;8.354;2022-11-20T15:05:21;32.40;;;16.27;;
16954;SDS011;8594;52.052;8.354;2022-11-20T15:07:51;31.73;;;16.47;;
16954;SDS011;8594;52.052;8.354;2022-11-20T15:10:31;34.30;;;15.40;;
16954;SDS011;8594;52.052;8.354;2022-11-20T15:13:00;34.57;;;15.80;;
16954;SDS011;8594;52.052;8.354;2022-11-20T15:15:32;33.53;;;15.80;;
16954;SDS011;8594;52.052;8.354;2022-11-20T15:18:09;32.57;;;15.83;;